Time,TemperatureF,DewpointF,PressureIn,WindDirection,WindDirectionDegrees,WindSpeedMPH,WindSpeedGustMPH,Humidity,HourlyPrecipIn,Conditions,Clouds,dailyrainin,SoftwareType,DateUTC
2013-01-27 00:00:00,24.1,9.4,30.23,ESE,117,4.0,4.0,53,0.00,,,0.00,Wunderground v.1.15,2013-01-27 06:00:00,
2013-01-27 00:30:00,24.2,9.9,30.23,SE,129,2.0,2.0,54,0.00,,,0.00,Wunderground v.1.15,2013-01-27 06:30:00,
2013-01-27 01:00:00,24.1,9.8,30.22,SE,139,3.0,3.0,54,0.00,,,0.00,Wunderground v.1.15,2013-01-27 07:00:00,
2013-01-27 01:30:00,24.1,10.2,30.21,ESE,121,4.0,4.0,55,0.00,,,0.00,Wunderground v.1.15,2013-01-27 07:30:00,
2013-01-27 02:00:00,23.8,10.4,30.20,SE,134,4.0,4.0,56,0.00,,,0.00,Wunderground v.1.15,2013-01-27 08:00:00,
2013-01-27 02:30:00,23.3,9.9,30.20,SE,146,3.0,3.0,56,0.00,,,0.00,Wunderground v.1.15,2013-01-27 08:30:00,
2013-01-27 03:00:00,23.5,10.5,30.19,ESE,117,3.0,3.0,57,0.00,,,0.00,Wunderground v.1.15,2013-01-27 09:00:00,
2013-01-27 03:30:00,23.9,10.9,30.18,ESE,123,3.0,3.0,57,0.00,,,0.00,Wunderground v.1.15,2013-01-27 09:30:00,
2013-01-27 04:00:00,23.8,11.2,30.17,ESE,115,2.0,2.0,58,0.00,,,0.00,Wunderground v.1.15,2013-01-27 10:00:00,
2013-01-27 04:30:00,24.1,11.4,30.15,ESE,113,2.0,2.0,58,0.00,,,0.00,Wunderground v.1.15,2013-01-27 10:30:00,
2013-01-27 05:00:00,23.6,11.7,30.15,ESE,109,2.0,2.0,60,0.00,,,0.00,Wunderground v.1.15,2013-01-27 11:00:00,
2013-01-27 05:30:00,23.5,12.0,30.14,ESE,111,2.0,3.0,61,0.00,,,0.00,Wunderground v.1.15,2013-01-27 11:30:00,
2013-01-27 06:00:00,23.5,11.6,30.14,ESE,108,2.0,3.0,60,0.00,,,0.00,Wunderground v.1.15,2013-01-27 12:00:00,
2013-01-27 06:30:00,23.6,12.1,30.13,ESE,110,2.0,2.0,61,0.00,,,0.00,Wunderground v.1.15,2013-01-27 12:30:00,
2013-01-27 07:00:00,24.1,12.6,30.13,ESE,104,2.0,2.0,61,0.00,,,0.00,Wunderground v.1.15,2013-01-27 13:00:00,
2013-01-27 07:30:00,25.3,13.3,30.13,SE,125,2.0,2.0,60,0.00,,,0.00,Wunderground v.1.15,2013-01-27 13:30:00,
2013-01-27 08:00:00,26.3,13.9,30.12,SE,128,4.0,6.0,59,0.00,,,0.00,Wunderground v.1.15,2013-01-27 14:00:00,
2013-01-27 08:30:00,27.0,14.2,30.12,East,100,4.0,4.0,58,0.00,,,0.00,Wunderground v.1.15,2013-01-27 14:30:00,
2013-01-27 09:00:00,27.8,14.5,30.11,SSE,147,4.0,9.0,57,0.00,,,0.00,Wunderground v.1.15,2013-01-27 15:00:00,
2013-01-27 09:30:00,28.4,14.7,30.10,SE,142,4.0,4.0,56,0.00,,,0.00,Wunderground v.1.15,2013-01-27 15:30:00,
2013-01-27 10:00:00,29.3,14.7,30.09,SSE,154,5.0,5.0,54,0.00,,,0.00,Wunderground v.1.15,2013-01-27 16:00:00,
2013-01-27 10:30:00,30.0,14.9,30.09,SSE,158,4.0,5.0,53,0.00,,,0.00,Wunderground v.1.15,2013-01-27 16:30:00,
2013-01-27 11:00:00,30.3,15.2,30.08,ESE,121,5.0,5.0,53,0.00,,,0.00,Wunderground v.1.15,2013-01-27 17:00:00,
2013-01-27 11:30:00,30.7,17.3,30.07,SSE,147,4.0,4.0,57,0.00,,,0.00,Wunderground v.1.15,2013-01-27 17:30:00,
2013-01-27 12:00:00,30.0,20.4,30.06,SE,134,6.0,6.0,67,0.00,,,0.00,Wunderground v.1.15,2013-01-27 18:00:00,
2013-01-27 12:30:00,30.1,22.8,30.03,ESE,122,5.0,6.0,74,0.00,,,0.00,Wunderground v.1.15,2013-01-27 18:30:00,
2013-01-27 13:00:00,29.7,24.3,30.01,East,101,6.0,9.0,80,0.00,,,0.00,Wunderground v.1.15,2013-01-27 19:00:00,
2013-01-27 13:30:00,29.4,26.0,30.01,East,98,7.0,9.0,87,0.00,,,0.00,Wunderground v.1.15,2013-01-27 19:30:00,
2013-01-27 14:00:00,29.0,27.2,29.98,SE,128,6.0,6.0,93,0.00,,,0.00,Wunderground v.1.15,2013-01-27 20:00:00,
2013-01-27 14:30:00,28.8,27.5,29.97,SE,140,5.0,5.0,95,0.00,,,0.00,Wunderground v.1.15,2013-01-27 20:30:00,
2013-01-27 15:00:00,28.7,27.7,29.95,East,85,7.0,7.0,96,0.00,,,0.00,Wunderground v.1.15,2013-01-27 21:00:00,
2013-01-27 15:30:00,28.5,27.5,29.94,East,93,8.0,13.0,96,0.00,,,0.00,Wunderground v.1.15,2013-01-27 21:30:00,
2013-01-27 16:00:00,28.8,27.8,29.93,SE,125,6.0,7.0,96,0.00,,,0.00,Wunderground v.1.15,2013-01-27 22:00:00,
2013-01-27 16:30:00,28.8,27.8,29.92,SSE,150,6.0,6.0,96,0.00,,,0.00,Wunderground v.1.15,2013-01-27 22:30:00,
2013-01-27 17:00:00,29.1,28.1,29.91,ESE,122,6.0,6.0,96,0.00,,,0.00,Wunderground v.1.15,2013-01-27 23:00:00,
2013-01-27 17:30:00,29.4,28.4,29.90,SSE,152,7.0,10.0,96,0.00,,,0.00,Wunderground v.1.15,2013-01-27 23:30:00,
2013-01-27 18:00:00,29.5,28.5,29.89,ESE,105,5.0,6.0,96,0.00,,,0.00,Wunderground v.1.15,2013-01-28 00:00:00,
2013-01-27 18:30:00,29.7,28.7,29.89,ESE,107,4.0,4.0,96,0.00,,,0.00,Wunderground v.1.15,2013-01-28 00:30:00,
2013-01-27 19:00:00,29.7,29.0,29.88,ESE,113,5.0,6.0,97,0.00,,,0.00,Wunderground v.1.15,2013-01-28 01:00:00,
2013-01-27 19:30:00,29.5,28.8,29.87,SE,126,4.0,6.0,97,0.00,,,0.00,Wunderground v.1.15,2013-01-28 01:30:00,
2013-01-27 20:00:00,29.7,29.0,29.86,SE,128,4.0,4.0,97,0.00,,,0.00,Wunderground v.1.15,2013-01-28 02:00:00,
2013-01-27 20:30:00,30.0,29.3,29.86,East,96,4.0,4.0,97,0.00,,,0.00,Wunderground v.1.15,2013-01-28 02:30:00,
2013-01-27 21:00:00,30.1,29.4,29.86,East,87,2.0,2.0,97,0.00,,,0.00,Wunderground v.1.15,2013-01-28 03:00:00,
2013-01-27 21:30:00,30.4,29.7,29.85,ESE,113,3.0,3.0,97,0.00,,,0.00,Wunderground v.1.15,2013-01-28 03:30:00,
2013-01-27 22:00:00,30.6,29.9,29.83,ESE,111,3.0,3.0,97,0.00,,,0.00,Wunderground v.1.15,2013-01-28 04:00:00,
2013-01-27 22:30:00,30.6,29.9,29.83,ESE,105,2.0,2.0,97,0.00,,,0.00,Wunderground v.1.15,2013-01-28 04:30:00,
2013-01-27 23:30:00,31.0,30.5,29.82,ESE,107,1.0,2.0,98,0.00,,,0.00,Wunderground v.1.15,2013-01-28 05:30:00,